createdAt,value
2022-09-14T00:01:33.079Z,99086.38
2022-09-14T00:04:00.699Z,99084.91
2022-09-14T00:06:28.253Z,99068.06
2022-09-14T00:08:55.770Z,99062.41
2022-09-14T00:11:23.906Z,99053.25
2022-09-14T00:13:51.449Z,99052.81
2022-09-14T00:16:19.006Z,99056.31
2022-09-14T00:18:46.649Z,99055.06
2022-09-14T00:21:14.811Z,99055.44
2022-09-14T00:23:42.510Z,99052.53
2022-09-14T00:26:10.239Z,99056.47
2022-09-14T00:28:37.828Z,99055.84
2022-09-14T00:31:05.371Z,99055.59
2022-09-14T00:33:33.953Z,99058.31
2022-09-14T00:36:01.701Z,99045.03
2022-09-14T00:38:29.258Z,99036.50
2022-09-14T00:40:56.884Z,99042.47
2022-09-14T00:43:24.412Z,99042.84
2022-09-14T00:45:51.979Z,99042.03
2022-09-14T00:48:19.948Z,99028.28
2022-09-14T00:50:47.626Z,99034.91
2022-09-14T00:53:15.231Z,99026.56
2022-09-14T00:55:43.079Z,99021.19
2022-09-14T00:58:10.615Z,99018.66
2022-09-14T01:00:38.483Z,99023.22
2022-09-14T01:03:06.083Z,99018.66
2022-09-14T01:05:33.592Z,99014.09
2022-09-14T01:08:01.142Z,99012.44
2022-09-14T01:10:28.720Z,99018.03
2022-09-14T01:12:56.891Z,99010.75
2022-09-14T01:15:24.439Z,99009.94
2022-09-14T01:17:52.299Z,99007.03
2022-09-14T01:20:19.854Z,99005.38
2022-09-14T01:22:47.369Z,99002.03
2022-09-14T01:25:15.582Z,99012.84
2022-09-14T01:27:44.157Z,99019.44
2022-09-14T01:30:11.722Z,99002.41
2022-09-14T01:32:39.264Z,99001.59
2022-09-14T01:35:06.769Z,98998.28
2022-09-14T01:37:34.609Z,99000.13
2022-09-14T01:40:02.203Z,99008.41
2022-09-14T01:42:29.959Z,99000.72
2022-09-14T01:44:57.464Z,98995.72
2022-09-14T01:47:26.531Z,98989.03
2022-09-14T01:49:54.901Z,98992.16
2022-09-14T01:52:22.435Z,98990.03
2022-09-14T01:54:50.041Z,98986.06
2022-09-14T01:57:17.749Z,98976.69
2022-09-14T01:59:45.281Z,98978.94
2022-09-14T02:02:13.327Z,98969.59
2022-09-14T02:04:41.227Z,98971.84
2022-09-14T02:07:08.747Z,98973.47
2022-09-14T02:09:36.329Z,98970.31
2022-09-14T02:12:04.158Z,98978.78
2022-09-14T02:14:32.005Z,98980.47
2022-09-14T02:16:59.569Z,98983.38
2022-09-14T02:19:27.118Z,98977.13
2022-09-14T02:21:54.945Z,98974.44
2022-09-14T02:24:22.505Z,98966.16
2022-09-14T02:26:50.661Z,98962.41
2022-09-14T02:29:18.203Z,98967.63
2022-09-14T02:31:45.923Z,98966.78
2022-09-14T02:34:13.534Z,98953.13
2022-09-14T02:36:41.038Z,98956.66
2022-09-14T02:39:09.139Z,98948.56
2022-09-14T02:41:37.480Z,98958.31
2022-09-14T02:44:05.009Z,98948.56
2022-09-14T02:46:32.645Z,98950.22
2022-09-14T02:49:00.212Z,98951.88
2022-09-14T02:51:28.324Z,98941.91
2022-09-14T02:53:55.894Z,98939.22
2022-09-14T02:56:23.396Z,98936.53
2022-09-14T02:58:50.932Z,98937.97
2022-09-14T03:01:18.573Z,98940.22
2022-09-14T03:03:46.548Z,98929.81
2022-09-14T03:06:14.366Z,98934.34
2022-09-14T03:08:41.956Z,98935.09
2022-09-14T03:11:09.495Z,98930.28
2022-09-14T03:13:37.002Z,98927.50
2022-09-14T03:16:05.428Z,98929.75
2022-09-14T03:18:33.024Z,98919.75
2022-09-14T03:21:00.553Z,98917.66
2022-09-14T03:23:28.140Z,98930.03
2022-09-14T03:25:55.671Z,98919.84
2022-09-14T03:28:24.916Z,98920.59
2022-09-14T03:30:53.054Z,98923.06
2022-09-14T03:33:20.611Z,98916.78
2022-09-14T03:35:48.161Z,98917.16
2022-09-14T03:38:16.049Z,98915.44
2022-09-14T03:40:43.947Z,98919.50
2022-09-14T03:43:12.647Z,98911.38
2022-09-14T03:45:40.191Z,98916.50
2022-09-14T03:48:07.751Z,98910.88
2022-09-14T03:50:35.607Z,98913.91
2022-09-14T03:53:05.241Z,98920.47
2022-09-14T03:55:32.786Z,98914.47
2022-09-14T03:58:00.332Z,98913.59
2022-09-14T04:00:27.911Z,98911.31
2022-09-14T04:02:55.530Z,98903.63
2022-09-14T04:05:23.597Z,98906.69
2022-09-14T04:07:51.148Z,98902.97
2022-09-14T04:10:19.084Z,98903.97
2022-09-14T04:12:46.623Z,98897.78
2022-09-14T04:15:14.211Z,98899.63
2022-09-14T04:17:42.538Z,98901.28
2022-09-14T04:20:10.064Z,98902.31
2022-09-14T04:22:37.664Z,98890.53
2022-09-14T04:25:05.184Z,98897.97
2022-09-14T04:27:32.719Z,98903.16
2022-09-14T04:30:00.875Z,98889.91
2022-09-14T04:32:33.496Z,98896.31
2022-09-14T04:35:01.975Z,98895.00
2022-09-14T04:37:29.521Z,98913.59
2022-09-14T04:39:57.107Z,98902.38
2022-09-14T04:42:25.067Z,98906.66
2022-09-14T04:44:52.589Z,98905.97
2022-09-14T04:47:20.124Z,98903.69
2022-09-14T04:49:47.746Z,98901.00
2022-09-14T04:52:15.344Z,98913.81
2022-09-14T04:54:44.573Z,98904.25
2022-09-14T04:57:12.174Z,98910.19
2022-09-14T04:59:39.721Z,98898.75
2022-09-14T05:02:07.335Z,98903.50
2022-09-14T05:04:35.169Z,98901.84
2022-09-14T05:07:03.320Z,98892.09
2022-09-14T05:09:31.047Z,98899.53
2022-09-14T05:11:58.633Z,98901.56
2022-09-14T05:14:26.184Z,98900.28
2022-09-14T05:16:53.999Z,98904.34
2022-09-14T05:19:21.601Z,98897.69
2022-09-14T05:21:49.113Z,98892.66
2022-09-14T05:24:16.802Z,98894.72
2022-09-14T05:26:44.424Z,98898.25
2022-09-14T05:29:11.982Z,98890.34
2022-09-14T05:31:39.895Z,98900.09
2022-09-14T05:34:07.501Z,98894.72
2022-09-14T05:36:35.061Z,98890.19
2022-09-14T05:39:02.898Z,98895.56
2022-09-14T05:41:30.541Z,98885.63
2022-09-14T05:43:58.449Z,98885.63
2022-09-14T05:46:26.041Z,98889.34
2022-09-14T05:48:53.657Z,98883.50
2022-09-14T05:51:21.267Z,98887.38
2022-09-14T05:53:48.805Z,98890.28
2022-09-14T05:56:16.927Z,98882.56
2022-09-14T05:58:44.518Z,98883.75
2022-09-14T06:01:12.443Z,98883.75
2022-09-14T06:03:40.203Z,98874.31
2022-09-14T06:06:07.785Z,98882.22
2022-09-14T06:08:35.933Z,98875.81
2022-09-14T06:11:03.526Z,98876.63
2022-09-14T06:13:31.083Z,98880.97
2022-09-14T06:15:59.233Z,98887.38
2022-09-14T06:18:26.823Z,98886.28
2022-09-14T06:20:54.710Z,98889.13
2022-09-14T06:23:22.548Z,98888.50
2022-09-14T06:25:50.209Z,98880.44
2022-09-14T06:28:17.760Z,98885.81
2022-09-14T06:30:45.427Z,98892.22
2022-09-14T06:33:13.567Z,98888.03
2022-09-14T06:35:42.197Z,98893.56
2022-09-14T06:38:09.720Z,98888.22
2022-09-14T06:40:37.291Z,98884.69
2022-09-14T06:43:04.879Z,98890.25
2022-09-14T06:45:34.195Z,98879.88
2022-09-14T06:48:01.809Z,98889.59
2022-09-14T06:50:29.405Z,98888.59
2022-09-14T06:52:56.982Z,98893.97
2022-09-14T06:55:24.596Z,98893.13
2022-09-14T06:57:52.753Z,98894.97
2022-09-14T07:00:20.336Z,98894.97
2022-09-14T07:02:50.372Z,98893.13
2022-09-14T07:05:21.178Z,98892.94
2022-09-14T07:07:49.102Z,98891.91
2022-09-14T07:10:16.942Z,98901.47
2022-09-14T07:12:44.935Z,98898.94
2022-09-14T07:15:12.597Z,98902.66
2022-09-14T07:17:40.275Z,98903.50
2022-09-14T07:20:08.054Z,98898.78
2022-09-14T07:22:36.244Z,98906.84
2022-09-14T07:25:03.889Z,98902.66
2022-09-14T07:27:31.500Z,98906.19
2022-09-14T07:29:59.472Z,98904.34
2022-09-14T07:32:27.085Z,98909.72
2022-09-14T07:34:55.299Z,98912.38
2022-09-14T07:37:22.954Z,98912.94
2022-09-14T07:39:50.757Z,98909.97
2022-09-14T07:42:18.491Z,98914.88
2022-09-14T07:44:46.127Z,98911.50
2022-09-14T07:47:14.329Z,98914.94
2022-09-14T07:49:41.967Z,98906.59
2022-09-14T07:52:11.423Z,98911.31
2022-09-14T07:54:39.510Z,98908.63
2022-09-14T07:57:07.149Z,98912.59
2022-09-14T07:59:37.139Z,98912.25
2022-09-14T08:02:05.095Z,98914.19
2022-09-14T08:04:32.743Z,98910.50
2022-09-14T08:07:01.030Z,98907.84
2022-09-14T08:09:28.917Z,98908.66
2022-09-14T08:11:57.686Z,98902.06
2022-09-14T08:14:25.403Z,98908.94
2022-09-14T08:16:53.105Z,98891.44
2022-09-14T08:19:21.173Z,98893.97
2022-09-14T08:21:48.934Z,98898.94
2022-09-14T08:24:17.273Z,98891.34
2022-09-14T08:26:44.950Z,98885.00
2022-09-14T08:29:12.712Z,98889.53
2022-09-14T08:31:40.424Z,98883.28
2022-09-14T08:34:08.088Z,98891.81
2022-09-14T08:36:37.046Z,98883.19
2022-09-14T08:39:04.756Z,98882.22
2022-09-14T08:41:32.451Z,98876.63
2022-09-14T08:44:00.095Z,98877.81
2022-09-14T08:46:27.849Z,98877.00
2022-09-14T08:48:55.861Z,98890.63
2022-09-14T08:51:23.729Z,98881.91
2022-09-14T08:53:51.332Z,98878.38
2022-09-14T08:56:18.925Z,98880.44
2022-09-14T08:58:48.544Z,98885.34
2022-09-14T09:01:17.043Z,98884.69
2022-09-14T09:03:44.718Z,98882.84
2022-09-14T09:06:15.752Z,98886.19
2022-09-14T09:08:43.943Z,98884.31
2022-09-14T09:11:11.597Z,98888.22
2022-09-14T09:13:40.657Z,98890.25
2022-09-14T09:16:08.251Z,98886.75
2022-09-14T09:18:35.977Z,98881.38
2022-09-14T09:21:03.911Z,98884.22
2022-09-14T09:23:33.239Z,98883.56
2022-09-14T09:26:01.529Z,98866.59
2022-09-14T09:28:29.949Z,98874.00
2022-09-14T09:30:57.541Z,98874.75
2022-09-14T09:33:25.151Z,98877.97
2022-09-14T09:35:52.780Z,98881.88
2022-09-14T09:38:24.764Z,98878.53
2022-09-14T09:40:52.385Z,98881.94
2022-09-14T09:43:33.615Z,98880.63
2022-09-14T09:46:07.703Z,98872.78
2022-09-14T09:48:36.175Z,98874.44
2022-09-14T09:51:03.759Z,98875.25
2022-09-14T09:53:31.382Z,98870.72
2022-09-14T09:55:59.013Z,98865.53
2022-09-14T09:58:26.603Z,98863.06
2022-09-14T10:00:54.547Z,98857.00
2022-09-14T10:03:22.640Z,98871.09
2022-09-14T10:05:50.324Z,98865.75
2022-09-14T10:08:19.447Z,98869.41
2022-09-14T10:10:47.640Z,98869.78
2022-09-14T10:13:15.261Z,98876.19
2022-09-14T10:15:43.317Z,98874.69
2022-09-14T10:18:11.107Z,98866.47
2022-09-14T10:20:38.759Z,98870.63
2022-09-14T10:23:06.402Z,98873.50
2022-09-14T10:25:35.573Z,98875.53
2022-09-14T10:28:03.217Z,98874.34
2022-09-14T10:30:31.100Z,98876.19
2022-09-14T10:32:59.400Z,98882.56
2022-09-14T10:35:27.000Z,98870.97
2022-09-14T10:37:55.286Z,98868.97
2022-09-14T10:40:23.139Z,98871.09
2022-09-14T10:42:51.392Z,98870.25
2022-09-14T10:45:19.038Z,98869.63
2022-09-14T10:47:47.201Z,98857.38
2022-09-14T10:50:15.651Z,98856.19
2022-09-14T10:52:43.404Z,98844.91
2022-09-14T10:55:11.072Z,98850.56
2022-09-14T10:57:39.024Z,98862.13
2022-09-14T11:00:08.221Z,98854.22
2022-09-14T11:02:36.504Z,98859.59
2022-09-14T11:05:04.171Z,98845.38
2022-09-14T11:07:31.772Z,98846.19
2022-09-14T11:09:59.452Z,98847.19
2022-09-14T11:12:27.098Z,98855.81
2022-09-14T11:14:54.784Z,98847.09
2022-09-14T11:17:22.451Z,98852.47
2022-09-14T11:19:50.077Z,98862.59
2022-09-14T11:22:17.934Z,98850.34
2022-09-14T11:24:45.585Z,98852.00
2022-09-14T11:27:15.716Z,98853.69
2022-09-14T11:29:44.419Z,98852.66
2022-09-14T11:32:27.729Z,98852.31
2022-09-14T11:34:56.321Z,98851.28
2022-09-14T11:37:24.262Z,98854.22
2022-09-14T11:39:51.985Z,98853.03
2022-09-14T11:42:19.657Z,98843.63
2022-09-14T11:44:47.392Z,98839.53
2022-09-14T11:47:15.033Z,98844.81
2022-09-14T11:49:43.094Z,98837.03
2022-09-14T11:52:10.833Z,98838.16
2022-09-14T11:54:40.009Z,98833.25
2022-09-14T11:57:10.121Z,98830.22
2022-09-14T11:59:37.836Z,98826.13
2022-09-14T12:02:06.108Z,98831.97
2022-09-14T12:04:33.813Z,98825.56
2022-09-14T12:07:01.491Z,98822.88
2022-09-14T12:09:29.106Z,98814.00
2022-09-14T12:11:56.976Z,98818.91
2022-09-14T12:14:24.918Z,98821.94
2022-09-14T12:16:52.528Z,98824.63
2022-09-14T12:19:20.207Z,98822.97
2022-09-14T12:21:47.963Z,98833.53
2022-09-14T12:24:15.673Z,98815.53
2022-09-14T12:26:43.879Z,98812.03
2022-09-14T12:29:11.503Z,98794.03
2022-09-14T12:31:39.469Z,98789.34
2022-09-14T12:34:07.356Z,98785.78
2022-09-14T12:36:35.154Z,98775.91
2022-09-14T12:39:03.633Z,98798.69
2022-09-14T12:41:31.290Z,98798.94
2022-09-14T12:43:58.955Z,98797.00
2022-09-14T12:46:26.957Z,98797.88
2022-09-14T12:48:55.946Z,98796.50
2022-09-14T12:51:23.988Z,98792.22
2022-09-14T12:53:51.986Z,98796.44
2022-09-14T12:56:19.612Z,98802.09
2022-09-14T12:58:47.337Z,98798.84
2022-09-14T13:01:15.201Z,98795.38
2022-09-14T13:03:43.742Z,98796.88
2022-09-14T13:06:11.452Z,98802.63
2022-09-14T13:08:39.339Z,98794.94
2022-09-14T13:11:06.967Z,98792.81
2022-09-14T13:13:34.730Z,98783.44
2022-09-14T13:16:03.819Z,98779.31
2022-09-14T13:18:31.613Z,98778.66
2022-09-14T13:20:59.388Z,98780.31
2022-09-14T13:23:27.098Z,98770.00
2022-09-14T13:25:55.081Z,98765.28
2022-09-14T13:28:23.225Z,98760.34
2022-09-14T13:30:50.928Z,98765.78
2022-09-14T13:33:18.652Z,98766.88
2022-09-14T13:35:46.299Z,98760.91
2022-09-14T13:38:14.161Z,98758.03
2022-09-14T13:40:42.338Z,98756.38
2022-09-14T13:43:10.053Z,98753.50
2022-09-14T13:45:37.700Z,98750.59
2022-09-14T13:48:05.349Z,98750.16
2022-09-14T13:50:33.138Z,98747.47
2022-09-14T13:53:03.342Z,98754.28
2022-09-14T13:55:31.669Z,98752.59
2022-09-14T13:57:59.311Z,98754.44
2022-09-14T14:00:27.243Z,98752.78
2022-09-14T14:02:54.917Z,98755.94
2022-09-14T14:05:23.425Z,98745.00
2022-09-14T14:07:51.460Z,98749.34
2022-09-14T14:10:20.633Z,98740.22
2022-09-14T14:12:50.809Z,98745.22
2022-09-14T14:15:18.624Z,98738.63
2022-09-14T14:17:46.579Z,98740.28
2022-09-14T14:20:14.291Z,98744.84
2022-09-14T14:22:42.229Z,98737.81
2022-09-14T14:25:13.737Z,98740.22
2022-09-14T14:27:41.963Z,98743.50
2022-09-14T14:30:10.354Z,98741.75
2022-09-14T14:32:38.008Z,98752.91
2022-09-14T14:35:05.799Z,98754.31
2022-09-14T14:37:33.408Z,98749.50
2022-09-14T14:40:03.074Z,98749.72
2022-09-14T14:42:31.677Z,98737.28
2022-09-14T14:44:59.334Z,98741.66
2022-09-14T14:47:27.688Z,98740.81
2022-09-14T14:49:55.390Z,98743.50
2022-09-14T14:52:23.054Z,98735.44
2022-09-14T14:54:51.016Z,98723.00
2022-09-14T14:57:19.270Z,98718.44
2022-09-14T14:59:47.179Z,98717.44
2022-09-14T15:02:14.767Z,98712.53
2022-09-14T15:04:42.467Z,98721.03
2022-09-14T15:07:11.095Z,98718.56
2022-09-14T15:09:38.778Z,98709.75
2022-09-14T15:12:06.440Z,98708.97
2022-09-14T15:14:34.136Z,98708.22
2022-09-14T15:17:02.849Z,98694.16
2022-09-14T15:19:30.846Z,98691.91
2022-09-14T15:22:01.364Z,98694.06
2022-09-14T15:24:29.364Z,98699.88
2022-09-14T15:26:57.409Z,98707.72
2022-09-14T15:29:25.350Z,98703.00
2022-09-14T15:31:53.573Z,98708.19
2022-09-14T15:34:21.286Z,98709.84
2022-09-14T15:36:51.138Z,98692.88
2022-09-14T15:39:18.787Z,98697.41
2022-09-14T15:41:46.658Z,98704.84
2022-09-14T15:44:15.661Z,98705.25
2022-09-14T15:46:44.596Z,98699.03
2022-09-14T15:49:12.291Z,98700.06
2022-09-14T15:51:42.020Z,98694.25
2022-09-14T15:54:09.678Z,98692.72
2022-09-14T15:56:37.935Z,98701.84
2022-09-14T15:59:05.547Z,98700.34
2022-09-14T16:01:33.289Z,98706.16
2022-09-14T16:04:01.044Z,98704.47
2022-09-14T16:06:28.614Z,98705.50
2022-09-14T16:08:58.041Z,98696.78
2022-09-14T16:11:25.718Z,98696.78
2022-09-14T16:13:53.429Z,98683.31
2022-09-14T16:16:21.145Z,98688.53
2022-09-14T16:18:50.146Z,98692.50
2022-09-14T16:21:18.818Z,98691.47
2022-09-14T16:23:46.422Z,98685.88
2022-09-14T16:26:14.507Z,98690.22
2022-09-14T16:28:42.127Z,98690.63
2022-09-14T16:31:09.764Z,98685.25
2022-09-14T16:33:37.634Z,98688.97
2022-09-14T16:36:05.378Z,98687.50
2022-09-14T16:38:33.010Z,98686.88
2022-09-14T16:41:01.377Z,98690.78
2022-09-14T16:43:30.187Z,98690.97
2022-09-14T16:45:58.444Z,98697.59
2022-09-14T16:48:26.220Z,98708.72
2022-09-14T16:50:53.823Z,98710.78
2022-09-14T16:53:21.477Z,98715.72
2022-09-14T16:55:49.516Z,98709.88
2022-09-14T16:58:17.505Z,98718.97
2022-09-14T17:00:45.243Z,98717.69
2022-09-14T17:03:12.954Z,98719.75
2022-09-14T17:05:40.554Z,98732.75
2022-09-14T17:08:08.104Z,98727.94
2022-09-14T17:10:36.130Z,98725.25
2022-09-14T17:13:03.806Z,98740.34
2022-09-14T17:15:31.418Z,98738.69
2022-09-14T17:17:59.494Z,98737.03
2022-09-14T17:20:27.313Z,98736.59
2022-09-14T17:22:55.749Z,98735.50
2022-09-14T17:25:25.234Z,98745.59
2022-09-14T17:27:53.311Z,98741.88
2022-09-14T17:30:21.098Z,98740.22
2022-09-14T17:32:48.708Z,98748.03
2022-09-14T17:35:16.893Z,98750.06
2022-09-14T17:37:44.897Z,98751.09
2022-09-14T17:40:12.593Z,98747.59
2022-09-14T17:42:42.552Z,98752.13
2022-09-14T17:45:10.173Z,98749.59
2022-09-14T17:47:38.626Z,98749.81
2022-09-14T17:50:06.525Z,98754.53
2022-09-14T17:52:34.166Z,98760.28
2022-09-14T17:55:01.824Z,98754.47
2022-09-14T17:57:32.205Z,98750.69
2022-09-14T18:00:03.051Z,98754.56
2022-09-14T18:02:31.246Z,98759.31
2022-09-14T18:05:00.567Z,98766.53
2022-09-14T18:07:28.402Z,98757.81
2022-09-14T18:09:56.155Z,98743.53
2022-09-14T18:12:25.020Z,98739.00
2022-09-14T18:14:52.683Z,98735.69
2022-09-14T18:17:20.659Z,98745.78
2022-09-14T18:19:48.348Z,98754.69
2022-09-14T18:22:16.947Z,98766.28
2022-09-14T18:24:45.681Z,98759.22
2022-09-14T18:27:13.320Z,98759.22
2022-09-14T18:29:41.055Z,98753.19
2022-09-14T18:32:08.908Z,98759.59
2022-09-14T18:34:36.592Z,98767.03
2022-09-14T18:37:04.538Z,98764.47
2022-09-14T18:39:32.175Z,98769.38
2022-09-14T18:42:00.116Z,98775.16
2022-09-14T18:44:27.853Z,98773.50
2022-09-14T18:46:55.510Z,98776.19
2022-09-14T18:49:23.565Z,98777.38
2022-09-14T18:51:51.207Z,98774.03
2022-09-14T18:54:18.917Z,98777.94
2022-09-14T18:56:46.592Z,98777.66
2022-09-14T18:59:14.133Z,98774.88
2022-09-14T19:01:43.226Z,98771.72
2022-09-14T19:04:10.937Z,98783.69
2022-09-14T19:06:39.047Z,98783.22
2022-09-14T19:09:06.949Z,98782.75
2022-09-14T19:11:35.313Z,98777.94
2022-09-14T19:14:03.516Z,98785.34
2022-09-14T19:16:31.201Z,98777.63
2022-09-14T19:18:59.245Z,98787.72
2022-09-14T19:21:27.086Z,98791.78
2022-09-14T19:23:54.767Z,98785.13
2022-09-14T19:26:23.014Z,98794.38
2022-09-14T19:28:50.919Z,98795.75
2022-09-14T19:31:18.633Z,98789.09
2022-09-14T19:33:46.273Z,98791.94
2022-09-14T19:36:14.005Z,98802.03
2022-09-14T19:38:42.229Z,98801.41
2022-09-14T19:41:09.862Z,98800.06
2022-09-14T19:43:37.503Z,98802.13
2022-09-14T19:46:05.256Z,98813.19
2022-09-14T19:48:32.883Z,98803.69
2022-09-14T19:51:03.032Z,98806.53
2022-09-14T19:53:30.802Z,98803.84
2022-09-14T19:55:58.555Z,98811.91
2022-09-14T19:58:28.748Z,98812.72
2022-09-14T20:00:56.437Z,98811.91
2022-09-14T20:03:24.355Z,98809.22
2022-09-14T20:05:54.713Z,98799.50
2022-09-14T20:08:25.991Z,98801.34
2022-09-14T20:10:53.645Z,98802.53
2022-09-14T20:13:21.207Z,98810.56
2022-09-14T20:15:49.395Z,98812.63
2022-09-14T20:18:17.132Z,98810.09
2022-09-14T20:20:44.900Z,98816.31
2022-09-14T20:23:12.636Z,98813.81
2022-09-14T20:25:40.289Z,98806.59
2022-09-14T20:28:08.225Z,98814.47
2022-09-14T20:30:35.808Z,98805.59
2022-09-14T20:33:03.975Z,98816.31
2022-09-14T20:35:31.711Z,98827.06
2022-09-14T20:37:59.387Z,98823.72
2022-09-14T20:40:27.692Z,98827.22
2022-09-14T20:42:55.423Z,98828.22
2022-09-14T20:45:23.106Z,98831.94
2022-09-14T20:47:50.739Z,98836.47
2022-09-14T20:50:18.463Z,98833.97
2022-09-14T20:52:47.106Z,98830.66
2022-09-14T20:55:15.150Z,98835.16
2022-09-14T20:57:42.722Z,98829.97
2022-09-14T21:00:10.345Z,98841.84
2022-09-14T21:02:38.418Z,98826.97
2022-09-14T21:05:06.366Z,98828.97
2022-09-14T21:07:34.494Z,98824.16
2022-09-14T21:10:02.024Z,98822.00
2022-09-14T21:12:29.702Z,98828.06
2022-09-14T21:14:57.406Z,98828.81
2022-09-14T21:17:26.912Z,98835.69
2022-09-14T21:19:54.475Z,98833.53
2022-09-14T21:22:22.046Z,98832.25
2022-09-14T21:24:49.586Z,98832.78
2022-09-14T21:27:17.163Z,98837.81
2022-09-14T21:29:45.134Z,98847.19
2022-09-14T21:32:12.670Z,98846.72
2022-09-14T21:34:40.270Z,98850.94
2022-09-14T21:37:08.871Z,98850.44
2022-09-14T21:39:38.124Z,98854.50
2022-09-14T21:42:06.200Z,98862.88
2022-09-14T21:44:33.846Z,98859.69
2022-09-14T21:47:01.411Z,98859.91
2022-09-14T21:49:28.975Z,98857.38
2022-09-14T21:51:56.597Z,98861.06
2022-09-14T21:54:24.804Z,98862.91
2022-09-14T21:56:52.334Z,98862.91
2022-09-14T21:59:19.936Z,98860.22
2022-09-14T22:01:48.219Z,98862.75
2022-09-14T22:04:15.898Z,98870.63
2022-09-14T22:06:45.531Z,98866.72
2022-09-14T22:09:13.085Z,98870.09
2022-09-14T22:11:40.604Z,98866.41
2022-09-14T22:14:08.180Z,98867.06
2022-09-14T22:16:35.709Z,98874.06
2022-09-14T22:19:04.424Z,98872.91
2022-09-14T22:21:32.000Z,98876.06
2022-09-14T22:23:59.832Z,98883.75
2022-09-14T22:26:27.986Z,98871.03
2022-09-14T22:28:55.581Z,98878.06
2022-09-14T22:31:23.508Z,98880.75
2022-09-14T22:33:51.207Z,98885.44
2022-09-14T22:36:19.429Z,98885.59
2022-09-14T22:38:46.994Z,98887.63
2022-09-14T22:41:14.540Z,98890.47
2022-09-14T22:43:42.596Z,98890.66
2022-09-14T22:46:10.516Z,98892.66
2022-09-14T22:48:38.079Z,98899.84
2022-09-14T22:51:05.685Z,98902.53
2022-09-14T22:53:33.192Z,98891.81
2022-09-14T22:56:01.349Z,98902.53
2022-09-14T22:58:28.921Z,98901.56
2022-09-14T23:00:56.553Z,98900.53
2022-09-14T23:03:24.168Z,98908.22
2022-09-14T23:05:51.733Z,98901.03
2022-09-14T23:08:21.166Z,98902.88
2022-09-14T23:10:48.674Z,98911.25
2022-09-14T23:13:16.243Z,98902.53
2022-09-14T23:15:43.817Z,98909.09
2022-09-14T23:18:11.326Z,98910.09
2022-09-14T23:20:39.239Z,98910.28
2022-09-14T23:23:06.736Z,98918.31
2022-09-14T23:25:34.257Z,98917.31
2022-09-14T23:28:01.867Z,98915.44
2022-09-14T23:30:29.849Z,98912.75
2022-09-14T23:32:57.764Z,98910.78
2022-09-14T23:35:25.323Z,98916.78
2022-09-14T23:37:52.845Z,98913.94
2022-09-14T23:40:20.414Z,98914.59
2022-09-14T23:42:48.010Z,98913.41
2022-09-14T23:45:16.121Z,98911.41
2022-09-14T23:47:43.655Z,98906.69
2022-09-14T23:50:11.197Z,98908.56
2022-09-14T23:52:39.300Z,98901.31
2022-09-14T23:55:06.834Z,98899.50
2022-09-14T23:57:34.414Z,98912.75
